sensor_id;sensor_type;location;lat;lon;timestamp;P1;durP1;ratioP1;P2;durP2;ratioP2
3943;SDS011;1986;52.546;13.428;2023-06-04T00:01:25;30.27;;;28.37;;
3943;SDS011;1986;52.546;13.428;2023-06-04T00:03:52;30.00;;;28.10;;
3943;SDS011;1986;52.546;13.428;2023-06-04T00:06:19;29.70;;;27.90;;
3943;SDS011;1986;52.546;13.428;2023-06-04T00:08:46;29.07;;;27.27;;
3943;SDS011;1986;52.546;13.428;2023-06-04T00:11:13;30.20;;;28.40;;
3943;SDS011;1986;52.546;13.428;2023-06-04T00:13:42;29.67;;;27.87;;
3943;SDS011;1986;52.546;13.428;2023-06-04T00:16:10;29.77;;;27.87;;
3943;SDS011;1986;52.546;13.428;2023-06-04T00:18:37;35.70;;;33.60;;
3943;SDS011;1986;52.546;13.428;2023-06-04T00:21:04;33.03;;;31.03;;
3943;SDS011;1986;52.546;13.428;2023-06-04T00:23:31;28.60;;;26.80;;
3943;SDS011;1986;52.546;13.428;2023-06-04T00:25:59;29.87;;;27.97;;
3943;SDS011;1986;52.546;13.428;2023-06-04T00:28:26;28.10;;;26.37;;
3943;SDS011;1986;52.546;13.428;2023-06-04T00:30:53;29.27;;;27.47;;
3943;SDS011;1986;52.546;13.428;2023-06-04T00:33:21;29.03;;;27.23;;
3943;SDS011;1986;52.546;13.428;2023-06-04T00:35:48;27.70;;;25.90;;
3943;SDS011;1986;52.546;13.428;2023-06-04T00:38:15;32.10;;;30.10;;
3943;SDS011;1986;52.546;13.428;2023-06-04T00:40:42;34.90;;;32.80;;
3943;SDS011;1986;52.546;13.428;2023-06-04T00:43:09;34.73;;;32.43;;
3943;SDS011;1986;52.546;13.428;2023-06-04T00:45:38;28.83;;;27.03;;
3943;SDS011;1986;52.546;13.428;2023-06-04T00:48:05;27.50;;;25.80;;
3943;SDS011;1986;52.546;13.428;2023-06-04T00:50:34;27.53;;;25.83;;
3943;SDS011;1986;52.546;13.428;2023-06-04T00:53:03;27.10;;;25.40;;
3943;SDS011;1986;52.546;13.428;2023-06-04T00:55:31;27.80;;;26.10;;
3943;SDS011;1986;52.546;13.428;2023-06-04T00:57:58;27.77;;;26.07;;
3943;SDS011;1986;52.546;13.428;2023-06-04T01:00:26;26.83;;;25.13;;
3943;SDS011;1986;52.546;13.428;2023-06-04T01:02:54;27.20;;;25.50;;
3943;SDS011;1986;52.546;13.428;2023-06-04T01:05:25;32.43;;;30.43;;
3943;SDS011;1986;52.546;13.428;2023-06-04T01:07:57;30.00;;;28.20;;
3943;SDS011;1986;52.546;13.428;2023-06-04T01:10:25;27.70;;;26.00;;
3943;SDS011;1986;52.546;13.428;2023-06-04T01:12:52;26.90;;;25.20;;
3943;SDS011;1986;52.546;13.428;2023-06-04T01:15:19;27.93;;;26.23;;
3943;SDS011;1986;52.546;13.428;2023-06-04T01:17:47;27.53;;;25.83;;
3943;SDS011;1986;52.546;13.428;2023-06-04T01:20:25;26.33;;;24.73;;
3943;SDS011;1986;52.546;13.428;2023-06-04T01:23:17;27.00;;;25.40;;
3943;SDS011;1986;52.546;13.428;2023-06-04T01:25:54;27.20;;;25.17;;
3943;SDS011;1986;52.546;13.428;2023-06-04T01:28:22;26.90;;;25.27;;
3943;SDS011;1986;52.546;13.428;2023-06-04T01:30:51;31.00;;;29.10;;
3943;SDS011;1986;52.546;13.428;2023-06-04T01:33:21;26.23;;;24.63;;
3943;SDS011;1986;52.546;13.428;2023-06-04T01:35:49;27.37;;;25.57;;
3943;SDS011;1986;52.546;13.428;2023-06-04T01:38:17;27.13;;;25.43;;
3943;SDS011;1986;52.546;13.428;2023-06-04T01:40:45;26.10;;;24.50;;
3943;SDS011;1986;52.546;13.428;2023-06-04T01:43:12;25.33;;;23.83;;
3943;SDS011;1986;52.546;13.428;2023-06-04T01:45:39;25.93;;;24.33;;
3943;SDS011;1986;52.546;13.428;2023-06-04T01:48:06;25.90;;;24.30;;
3943;SDS011;1986;52.546;13.428;2023-06-04T01:50:33;25.77;;;24.17;;
3943;SDS011;1986;52.546;13.428;2023-06-04T01:53:00;29.40;;;27.70;;
3943;SDS011;1986;52.546;13.428;2023-06-04T01:55:29;30.40;;;28.70;;
3943;SDS011;1986;52.546;13.428;2023-06-04T01:57:58;24.53;;;23.10;;
3943;SDS011;1986;52.546;13.428;2023-06-04T02:00:26;24.70;;;23.20;;
3943;SDS011;1986;52.546;13.428;2023-06-04T02:02:53;24.40;;;22.90;;
3943;SDS011;1986;52.546;13.428;2023-06-04T02:05:21;24.30;;;22.90;;
3943;SDS011;1986;52.546;13.428;2023-06-04T02:07:48;24.70;;;23.20;;
3943;SDS011;1986;52.546;13.428;2023-06-04T02:10:17;24.87;;;23.37;;
3943;SDS011;1986;52.546;13.428;2023-06-04T02:12:56;24.00;;;22.60;;
3943;SDS011;1986;52.546;13.428;2023-06-04T02:15:24;29.87;;;28.17;;
3943;SDS011;1986;52.546;13.428;2023-06-04T02:17:53;28.20;;;26.50;;
3943;SDS011;1986;52.546;13.428;2023-06-04T02:20:24;23.70;;;22.30;;
3943;SDS011;1986;52.546;13.428;2023-06-04T02:22:51;24.30;;;22.90;;
3943;SDS011;1986;52.546;13.428;2023-06-04T02:25:19;23.97;;;22.57;;
3943;SDS011;1986;52.546;13.428;2023-06-04T02:27:46;24.10;;;22.70;;
3943;SDS011;1986;52.546;13.428;2023-06-04T02:30:15;23.03;;;21.70;;
3943;SDS011;1986;52.546;13.428;2023-06-04T02:32:42;24.17;;;22.73;;
3943;SDS011;1986;52.546;13.428;2023-06-04T02:35:09;23.87;;;22.47;;
3943;SDS011;1986;52.546;13.428;2023-06-04T02:37:36;26.73;;;25.33;;
3943;SDS011;1986;52.546;13.428;2023-06-04T02:40:04;24.13;;;22.83;;
3943;SDS011;1986;52.546;13.428;2023-06-04T02:42:31;23.30;;;21.90;;
3943;SDS011;1986;52.546;13.428;2023-06-04T02:44:58;22.40;;;21.10;;
3943;SDS011;1986;52.546;13.428;2023-06-04T02:47:27;22.00;;;20.80;;
3943;SDS011;1986;52.546;13.428;2023-06-04T02:49:54;21.90;;;20.70;;
3943;SDS011;1986;52.546;13.428;2023-06-04T02:52:21;21.87;;;20.67;;
3943;SDS011;1986;52.546;13.428;2023-06-04T02:54:50;22.70;;;21.40;;
3943;SDS011;1986;52.546;13.428;2023-06-04T02:57:17;22.77;;;21.47;;
3943;SDS011;1986;52.546;13.428;2023-06-04T02:59:44;24.90;;;23.60;;
3943;SDS011;1986;52.546;13.428;2023-06-04T03:02:11;24.30;;;23.00;;
3943;SDS011;1986;52.546;13.428;2023-06-04T03:04:41;22.17;;;20.97;;
3943;SDS011;1986;52.546;13.428;2023-06-04T03:07:09;23.40;;;22.00;;
3943;SDS011;1986;52.546;13.428;2023-06-04T03:09:37;22.30;;;21.10;;
3943;SDS011;1986;52.546;13.428;2023-06-04T03:12:04;21.97;;;20.77;;
3943;SDS011;1986;52.546;13.428;2023-06-04T03:14:33;22.10;;;20.90;;
3943;SDS011;1986;52.546;13.428;2023-06-04T03:17:01;21.90;;;20.70;;
3943;SDS011;1986;52.546;13.428;2023-06-04T03:19:33;21.87;;;20.67;;
3943;SDS011;1986;52.546;13.428;2023-06-04T03:22:03;21.07;;;19.87;;
3943;SDS011;1986;52.546;13.428;2023-06-04T03:24:32;24.07;;;22.87;;
3943;SDS011;1986;52.546;13.428;2023-06-04T03:27:01;26.20;;;24.90;;
3943;SDS011;1986;52.546;13.428;2023-06-04T03:29:28;22.23;;;21.03;;
3943;SDS011;1986;52.546;13.428;2023-06-04T03:31:57;21.37;;;20.17;;
3943;SDS011;1986;52.546;13.428;2023-06-04T03:34:24;21.00;;;19.80;;
3943;SDS011;1986;52.546;13.428;2023-06-04T03:36:51;21.83;;;20.63;;
3943;SDS011;1986;52.546;13.428;2023-06-04T03:39:19;22.83;;;21.43;;
3943;SDS011;1986;52.546;13.428;2023-06-04T03:41:46;21.10;;;19.90;;
3943;SDS011;1986;52.546;13.428;2023-06-04T03:44:14;21.43;;;20.23;;
3943;SDS011;1986;52.546;13.428;2023-06-04T03:46:41;24.40;;;23.10;;
3943;SDS011;1986;52.546;13.428;2023-06-04T03:49:09;24.27;;;22.97;;
3943;SDS011;1986;52.546;13.428;2023-06-04T03:51:37;24.57;;;23.27;;
3943;SDS011;1986;52.546;13.428;2023-06-04T03:54:04;21.00;;;19.90;;
3943;SDS011;1986;52.546;13.428;2023-06-04T03:56:33;21.33;;;20.13;;
3943;SDS011;1986;52.546;13.428;2023-06-04T03:59:00;21.60;;;20.40;;
3943;SDS011;1986;52.546;13.428;2023-06-04T04:01:27;21.80;;;20.60;;
3943;SDS011;1986;52.546;13.428;2023-06-04T04:03:55;22.17;;;20.87;;
3943;SDS011;1986;52.546;13.428;2023-06-04T04:06:21;22.00;;;20.70;;
3943;SDS011;1986;52.546;13.428;2023-06-04T04:08:50;24.53;;;23.13;;
3943;SDS011;1986;52.546;13.428;2023-06-04T04:11:18;25.97;;;24.57;;
3943;SDS011;1986;52.546;13.428;2023-06-04T04:13:46;26.13;;;24.63;;
3943;SDS011;1986;52.546;13.428;2023-06-04T04:16:13;22.33;;;21.03;;
3943;SDS011;1986;52.546;13.428;2023-06-04T04:18:41;21.47;;;20.17;;
3943;SDS011;1986;52.546;13.428;2023-06-04T04:21:09;22.13;;;20.83;;
3943;SDS011;1986;52.546;13.428;2023-06-04T04:23:37;21.20;;;19.90;;
3943;SDS011;1986;52.546;13.428;2023-06-04T04:26:07;21.70;;;20.40;;
3943;SDS011;1986;52.546;13.428;2023-06-04T04:28:35;24.10;;;22.80;;
3943;SDS011;1986;52.546;13.428;2023-06-04T04:31:05;25.53;;;24.13;;
3943;SDS011;1986;52.546;13.428;2023-06-04T04:33:35;25.40;;;24.00;;
3943;SDS011;1986;52.546;13.428;2023-06-04T04:36:04;22.40;;;21.10;;
3943;SDS011;1986;52.546;13.428;2023-06-04T04:38:34;22.47;;;21.07;;
3943;SDS011;1986;52.546;13.428;2023-06-04T04:41:01;22.50;;;21.20;;
3943;SDS011;1986;52.546;13.428;2023-06-04T04:43:28;22.47;;;21.17;;
3943;SDS011;1986;52.546;13.428;2023-06-04T04:45:56;22.40;;;21.10;;
3943;SDS011;1986;52.546;13.428;2023-06-04T04:48:24;23.40;;;22.00;;
3943;SDS011;1986;52.546;13.428;2023-06-04T04:50:52;27.10;;;25.60;;
3943;SDS011;1986;52.546;13.428;2023-06-04T04:53:19;28.17;;;26.57;;
3943;SDS011;1986;52.546;13.428;2023-06-04T04:55:46;22.43;;;21.13;;
3943;SDS011;1986;52.546;13.428;2023-06-04T04:58:14;23.00;;;21.60;;
3943;SDS011;1986;52.546;13.428;2023-06-04T05:00:43;23.70;;;22.30;;
3943;SDS011;1986;52.546;13.428;2023-06-04T05:03:10;23.60;;;22.20;;
3943;SDS011;1986;52.546;13.428;2023-06-04T05:05:39;25.67;;;23.83;;
3943;SDS011;1986;52.546;13.428;2023-06-04T05:08:06;27.93;;;26.33;;
3943;SDS011;1986;52.546;13.428;2023-06-04T05:10:35;29.40;;;27.70;;
3943;SDS011;1986;52.546;13.428;2023-06-04T05:13:02;28.67;;;27.07;;
3943;SDS011;1986;52.546;13.428;2023-06-04T05:15:31;30.90;;;29.10;;
3943;SDS011;1986;52.546;13.428;2023-06-04T05:17:58;25.93;;;24.23;;
3943;SDS011;1986;52.546;13.428;2023-06-04T05:20:28;25.30;;;23.70;;
3943;SDS011;1986;52.546;13.428;2023-06-04T05:22:57;25.30;;;23.60;;
3943;SDS011;1986;52.546;13.428;2023-06-04T05:25:24;25.73;;;24.03;;
3943;SDS011;1986;52.546;13.428;2023-06-04T05:27:56;27.70;;;25.97;;
3943;SDS011;1986;52.546;13.428;2023-06-04T05:30:23;26.37;;;24.57;;
3943;SDS011;1986;52.546;13.428;2023-06-04T05:32:50;25.77;;;24.07;;
3943;SDS011;1986;52.546;13.428;2023-06-04T05:35:18;25.33;;;23.63;;
3943;SDS011;1986;52.546;13.428;2023-06-04T05:37:48;25.77;;;23.97;;
3943;SDS011;1986;52.546;13.428;2023-06-04T05:40:20;26.97;;;25.07;;
3943;SDS011;1986;52.546;13.428;2023-06-04T05:42:50;26.10;;;24.30;;
3943;SDS011;1986;52.546;13.428;2023-06-04T05:45:19;26.93;;;25.13;;
3943;SDS011;1986;52.546;13.428;2023-06-04T05:47:46;28.27;;;26.37;;
3943;SDS011;1986;52.546;13.428;2023-06-04T05:50:13;30.83;;;28.83;;
3943;SDS011;1986;52.546;13.428;2023-06-04T05:52:42;31.70;;;29.80;;
3943;SDS011;1986;52.546;13.428;2023-06-04T05:55:09;26.50;;;24.70;;
3943;SDS011;1986;52.546;13.428;2023-06-04T05:57:39;26.80;;;25.00;;
3943;SDS011;1986;52.546;13.428;2023-06-04T06:00:06;27.93;;;25.80;;
3943;SDS011;1986;52.546;13.428;2023-06-04T06:02:37;27.73;;;25.93;;
3943;SDS011;1986;52.546;13.428;2023-06-04T06:05:05;27.63;;;25.83;;
3943;SDS011;1986;52.546;13.428;2023-06-04T06:07:33;31.60;;;29.60;;
3943;SDS011;1986;52.546;13.428;2023-06-04T06:10:00;27.70;;;25.90;;
3943;SDS011;1986;52.546;13.428;2023-06-04T06:12:27;28.53;;;26.63;;
3943;SDS011;1986;52.546;13.428;2023-06-04T06:14:56;28.10;;;26.30;;
3943;SDS011;1986;52.546;13.428;2023-06-04T06:17:23;29.03;;;27.13;;
3943;SDS011;1986;52.546;13.428;2023-06-04T06:19:51;34.27;;;31.50;;
3943;SDS011;1986;52.546;13.428;2023-06-04T06:22:18;28.43;;;26.53;;
3943;SDS011;1986;52.546;13.428;2023-06-04T06:24:45;28.87;;;26.97;;
3943;SDS011;1986;52.546;13.428;2023-06-04T06:27:13;30.20;;;28.10;;
3943;SDS011;1986;52.546;13.428;2023-06-04T06:29:41;29.20;;;27.20;;
3943;SDS011;1986;52.546;13.428;2023-06-04T06:32:11;29.50;;;27.30;;
3943;SDS011;1986;52.546;13.428;2023-06-04T06:34:38;29.03;;;26.93;;
3943;SDS011;1986;52.546;13.428;2023-06-04T06:37:06;29.70;;;27.40;;
3943;SDS011;1986;52.546;13.428;2023-06-04T06:39:33;29.13;;;27.03;;
3943;SDS011;1986;52.546;13.428;2023-06-04T06:42:00;29.20;;;27.00;;
3943;SDS011;1986;52.546;13.428;2023-06-04T06:44:27;30.03;;;27.83;;
3943;SDS011;1986;52.546;13.428;2023-06-04T06:46:54;30.87;;;28.57;;
3943;SDS011;1986;52.546;13.428;2023-06-04T06:49:22;31.77;;;29.47;;
3943;SDS011;1986;52.546;13.428;2023-06-04T06:51:52;30.23;;;28.00;;
3943;SDS011;1986;52.546;13.428;2023-06-04T06:54:19;30.10;;;27.80;;
3943;SDS011;1986;52.546;13.428;2023-06-04T06:56:47;30.47;;;28.00;;
3943;SDS011;1986;52.546;13.428;2023-06-04T06:59:23;30.23;;;27.83;;
3943;SDS011;1986;52.546;13.428;2023-06-04T07:01:50;29.97;;;27.60;;
3943;SDS011;1986;52.546;13.428;2023-06-04T07:04:17;30.90;;;28.50;;
3943;SDS011;1986;52.546;13.428;2023-06-04T07:06:45;30.07;;;27.67;;
3943;SDS011;1986;52.546;13.428;2023-06-04T07:09:13;30.80;;;28.30;;
3943;SDS011;1986;52.546;13.428;2023-06-04T07:11:40;34.30;;;31.80;;
3943;SDS011;1986;52.546;13.428;2023-06-04T07:14:13;29.23;;;26.93;;
3943;SDS011;1986;52.546;13.428;2023-06-04T07:16:41;29.17;;;26.87;;
3943;SDS011;1986;52.546;13.428;2023-06-04T07:19:07;29.63;;;27.23;;
3943;SDS011;1986;52.546;13.428;2023-06-04T07:21:38;30.30;;;27.90;;
3943;SDS011;1986;52.546;13.428;2023-06-04T07:24:09;29.23;;;26.83;;
3943;SDS011;1986;52.546;13.428;2023-06-04T07:26:40;29.50;;;27.20;;
3943;SDS011;1986;52.546;13.428;2023-06-04T07:29:11;31.13;;;28.63;;
3943;SDS011;1986;52.546;13.428;2023-06-04T07:31:40;30.20;;;27.80;;
3943;SDS011;1986;52.546;13.428;2023-06-04T07:34:07;30.70;;;28.40;;
3943;SDS011;1986;52.546;13.428;2023-06-04T07:36:38;31.60;;;29.20;;
3943;SDS011;1986;52.546;13.428;2023-06-04T07:39:09;31.57;;;29.27;;
3943;SDS011;1986;52.546;13.428;2023-06-04T07:41:39;30.80;;;28.60;;
3943;SDS011;1986;52.546;13.428;2023-06-04T07:44:08;30.53;;;28.33;;
3943;SDS011;1986;52.546;13.428;2023-06-04T07:46:45;30.83;;;28.43;;
3943;SDS011;1986;52.546;13.428;2023-06-04T07:49:21;30.80;;;28.40;;
3943;SDS011;1986;52.546;13.428;2023-06-04T07:51:50;31.60;;;29.20;;
3943;SDS011;1986;52.546;13.428;2023-06-04T07:54:23;30.30;;;28.00;;
3943;SDS011;1986;52.546;13.428;2023-06-04T07:56:51;29.63;;;27.53;;
3943;SDS011;1986;52.546;13.428;2023-06-04T07:59:23;30.30;;;28.00;;
3943;SDS011;1986;52.546;13.428;2023-06-04T08:01:56;32.33;;;29.83;;
3943;SDS011;1986;52.546;13.428;2023-06-04T08:04:25;31.23;;;28.83;;
3943;SDS011;1986;52.546;13.428;2023-06-04T08:07:00;32.27;;;29.77;;
3943;SDS011;1986;52.546;13.428;2023-06-04T08:09:28;32.90;;;30.40;;
3943;SDS011;1986;52.546;13.428;2023-06-04T08:11:56;30.60;;;28.30;;
3943;SDS011;1986;52.546;13.428;2023-06-04T08:14:24;30.70;;;28.40;;
3943;SDS011;1986;52.546;13.428;2023-06-04T08:16:52;32.33;;;29.83;;
3943;SDS011;1986;52.546;13.428;2023-06-04T08:19:19;32.37;;;29.87;;
3943;SDS011;1986;52.546;13.428;2023-06-04T08:21:46;31.40;;;29.10;;
3943;SDS011;1986;52.546;13.428;2023-06-04T08:24:22;32.43;;;29.93;;
3943;SDS011;1986;52.546;13.428;2023-06-04T08:26:51;31.90;;;29.50;;
3943;SDS011;1986;52.546;13.428;2023-06-04T08:29:18;35.73;;;33.10;;
3943;SDS011;1986;52.546;13.428;2023-06-04T08:31:45;34.40;;;31.90;;
3943;SDS011;1986;52.546;13.428;2023-06-04T08:34:12;33.47;;;31.07;;
3943;SDS011;1986;52.546;13.428;2023-06-04T08:36:39;32.47;;;30.07;;
3943;SDS011;1986;52.546;13.428;2023-06-04T08:39:06;31.70;;;29.30;;
3943;SDS011;1986;52.546;13.428;2023-06-04T08:41:38;32.27;;;29.80;;
3943;SDS011;1986;52.546;13.428;2023-06-04T08:44:10;32.17;;;29.67;;
3943;SDS011;1986;52.546;13.428;2023-06-04T08:46:38;32.03;;;29.53;;
3943;SDS011;1986;52.546;13.428;2023-06-04T08:49:06;31.30;;;28.90;;
3943;SDS011;1986;52.546;13.428;2023-06-04T08:51:34;32.70;;;30.20;;
3943;SDS011;1986;52.546;13.428;2023-06-04T08:54:03;30.00;;;27.73;;
3943;SDS011;1986;52.546;13.428;2023-06-04T08:56:30;29.70;;;27.50;;
3943;SDS011;1986;52.546;13.428;2023-06-04T08:58:59;30.30;;;28.00;;
3943;SDS011;1986;52.546;13.428;2023-06-04T09:01:29;30.60;;;28.30;;
3943;SDS011;1986;52.546;13.428;2023-06-04T09:03:57;30.00;;;27.80;;
3943;SDS011;1986;52.546;13.428;2023-06-04T09:06:25;29.70;;;27.50;;
3943;SDS011;1986;52.546;13.428;2023-06-04T09:08:54;31.37;;;28.87;;
3943;SDS011;1986;52.546;13.428;2023-06-04T09:11:24;30.50;;;28.30;;
3943;SDS011;1986;52.546;13.428;2023-06-04T09:13:56;30.50;;;28.20;;
3943;SDS011;1986;52.546;13.428;2023-06-04T09:16:28;31.30;;;29.00;;
3943;SDS011;1986;52.546;13.428;2023-06-04T09:19:01;31.60;;;29.20;;
3943;SDS011;1986;52.546;13.428;2023-06-04T09:21:29;32.07;;;29.67;;
3943;SDS011;1986;52.546;13.428;2023-06-04T09:23:57;30.87;;;28.57;;
3943;SDS011;1986;52.546;13.428;2023-06-04T09:26:24;32.17;;;29.87;;
3943;SDS011;1986;52.546;13.428;2023-06-04T09:28:51;31.20;;;28.90;;
3943;SDS011;1986;52.546;13.428;2023-06-04T09:31:21;32.70;;;30.20;;
3943;SDS011;1986;52.546;13.428;2023-06-04T09:33:55;31.50;;;29.20;;
3943;SDS011;1986;52.546;13.428;2023-06-04T09:36:22;30.60;;;28.30;;
3943;SDS011;1986;52.546;13.428;2023-06-04T09:38:56;30.87;;;28.57;;
3943;SDS011;1986;52.546;13.428;2023-06-04T09:41:24;30.20;;;27.90;;
3943;SDS011;1986;52.546;13.428;2023-06-04T09:43:58;30.20;;;27.90;;
3943;SDS011;1986;52.546;13.428;2023-06-04T09:46:28;30.40;;;28.10;;
3943;SDS011;1986;52.546;13.428;2023-06-04T09:49:02;30.03;;;27.73;;
3943;SDS011;1986;52.546;13.428;2023-06-04T09:51:30;30.77;;;28.47;;
3943;SDS011;1986;52.546;13.428;2023-06-04T09:53:58;30.30;;;28.10;;
3943;SDS011;1986;52.546;13.428;2023-06-04T09:56:26;31.53;;;29.23;;
3943;SDS011;1986;52.546;13.428;2023-06-04T09:58:57;30.70;;;28.40;;
3943;SDS011;1986;52.546;13.428;2023-06-04T10:01:27;29.60;;;27.30;;
3943;SDS011;1986;52.546;13.428;2023-06-04T10:03:55;31.93;;;29.53;;
3943;SDS011;1986;52.546;13.428;2023-06-04T10:06:26;29.80;;;27.60;;
3943;SDS011;1986;52.546;13.428;2023-06-04T10:08:53;30.77;;;28.00;;
3943;SDS011;1986;52.546;13.428;2023-06-04T10:11:25;32.00;;;29.70;;
3943;SDS011;1986;52.546;13.428;2023-06-04T10:14:00;31.70;;;29.40;;
3943;SDS011;1986;52.546;13.428;2023-06-04T10:16:30;32.57;;;29.97;;
3943;SDS011;1986;52.546;13.428;2023-06-04T10:18:58;31.73;;;29.43;;
3943;SDS011;1986;52.546;13.428;2023-06-04T10:21:27;32.10;;;29.80;;
3943;SDS011;1986;52.546;13.428;2023-06-04T10:23:59;32.17;;;29.77;;
3943;SDS011;1986;52.546;13.428;2023-06-04T10:26:26;31.03;;;28.73;;
3943;SDS011;1986;52.546;13.428;2023-06-04T10:28:55;31.97;;;29.57;;
3943;SDS011;1986;52.546;13.428;2023-06-04T10:31:23;34.07;;;31.20;;
3943;SDS011;1986;52.546;13.428;2023-06-04T10:33:53;31.03;;;28.73;;
3943;SDS011;1986;52.546;13.428;2023-06-04T10:36:21;32.27;;;29.87;;
3943;SDS011;1986;52.546;13.428;2023-06-04T10:38:51;35.97;;;30.60;;
3943;SDS011;1986;52.546;13.428;2023-06-04T10:41:19;31.13;;;28.70;;
3943;SDS011;1986;52.546;13.428;2023-06-04T10:43:47;30.57;;;28.20;;
3943;SDS011;1986;52.546;13.428;2023-06-04T10:46:16;30.57;;;28.27;;
3943;SDS011;1986;52.546;13.428;2023-06-04T10:48:58;30.37;;;28.07;;
3943;SDS011;1986;52.546;13.428;2023-06-04T10:51:29;31.50;;;29.10;;
3943;SDS011;1986;52.546;13.428;2023-06-04T10:53:59;31.13;;;28.83;;
3943;SDS011;1986;52.546;13.428;2023-06-04T10:56:28;30.13;;;27.93;;
3943;SDS011;1986;52.546;13.428;2023-06-04T10:58:57;30.93;;;28.67;;
3943;SDS011;1986;52.546;13.428;2023-06-04T11:01:24;32.20;;;29.50;;
3943;SDS011;1986;52.546;13.428;2023-06-04T11:03:54;30.13;;;27.97;;
3943;SDS011;1986;52.546;13.428;2023-06-04T11:06:23;29.53;;;27.33;;
3943;SDS011;1986;52.546;13.428;2023-06-04T11:09:02;31.40;;;29.00;;
3943;SDS011;1986;52.546;13.428;2023-06-04T11:11:30;31.20;;;28.80;;
3943;SDS011;1986;52.546;13.428;2023-06-04T11:14:06;31.70;;;29.30;;
3943;SDS011;1986;52.546;13.428;2023-06-04T11:16:34;32.20;;;29.80;;
3943;SDS011;1986;52.546;13.428;2023-06-04T11:19:01;32.10;;;29.80;;
3943;SDS011;1986;52.546;13.428;2023-06-04T11:21:28;31.80;;;29.50;;
3943;SDS011;1986;52.546;13.428;2023-06-04T11:23:57;32.23;;;29.83;;
3943;SDS011;1986;52.546;13.428;2023-06-04T11:26:30;31.80;;;29.50;;
3943;SDS011;1986;52.546;13.428;2023-06-04T11:28:58;32.80;;;30.37;;
3943;SDS011;1986;52.546;13.428;2023-06-04T11:31:25;31.63;;;29.30;;
3943;SDS011;1986;52.546;13.428;2023-06-04T11:33:52;31.00;;;28.70;;
3943;SDS011;1986;52.546;13.428;2023-06-04T11:36:22;31.33;;;29.03;;
3943;SDS011;1986;52.546;13.428;2023-06-04T11:38:53;30.10;;;27.90;;
3943;SDS011;1986;52.546;13.428;2023-06-04T11:41:21;31.37;;;29.07;;
3943;SDS011;1986;52.546;13.428;2023-06-04T11:43:50;32.03;;;29.63;;
3943;SDS011;1986;52.546;13.428;2023-06-04T11:46:17;30.63;;;28.43;;
3943;SDS011;1986;52.546;13.428;2023-06-04T11:48:45;30.13;;;27.93;;
3943;SDS011;1986;52.546;13.428;2023-06-04T11:51:12;30.50;;;28.30;;
3943;SDS011;1986;52.546;13.428;2023-06-04T11:53:39;30.30;;;28.10;;
3943;SDS011;1986;52.546;13.428;2023-06-04T11:56:06;30.77;;;28.47;;
3943;SDS011;1986;52.546;13.428;2023-06-04T11:58:34;30.20;;;27.83;;
3943;SDS011;1986;52.546;13.428;2023-06-04T12:01:02;31.90;;;29.60;;
3943;SDS011;1986;52.546;13.428;2023-06-04T12:03:36;31.40;;;29.10;;
3943;SDS011;1986;52.546;13.428;2023-06-04T12:06:11;33.47;;;31.07;;
3943;SDS011;1986;52.546;13.428;2023-06-04T12:08:47;34.77;;;30.80;;
3943;SDS011;1986;52.546;13.428;2023-06-04T12:11:24;31.43;;;29.10;;
3943;SDS011;1986;52.546;13.428;2023-06-04T12:13:56;31.30;;;29.00;;
3943;SDS011;1986;52.546;13.428;2023-06-04T12:16:26;30.70;;;28.40;;
3943;SDS011;1986;52.546;13.428;2023-06-04T12:19:03;30.17;;;27.97;;
3943;SDS011;1986;52.546;13.428;2023-06-04T12:21:32;30.27;;;28.07;;
3943;SDS011;1986;52.546;13.428;2023-06-04T12:24:06;30.60;;;28.40;;
3943;SDS011;1986;52.546;13.428;2023-06-04T12:26:33;32.17;;;29.87;;
3943;SDS011;1986;52.546;13.428;2023-06-04T12:29:07;31.07;;;28.77;;
3943;SDS011;1986;52.546;13.428;2023-06-04T12:31:40;31.00;;;28.70;;
3943;SDS011;1986;52.546;13.428;2023-06-04T12:34:08;30.50;;;28.30;;
3943;SDS011;1986;52.546;13.428;2023-06-04T12:36:36;30.70;;;28.50;;
3943;SDS011;1986;52.546;13.428;2023-06-04T12:39:08;29.90;;;27.73;;
3943;SDS011;1986;52.546;13.428;2023-06-04T12:41:35;29.30;;;27.20;;
3943;SDS011;1986;52.546;13.428;2023-06-04T12:44:02;28.70;;;26.70;;
3943;SDS011;1986;52.546;13.428;2023-06-04T12:46:29;29.80;;;27.70;;
3943;SDS011;1986;52.546;13.428;2023-06-04T12:48:57;29.57;;;27.47;;
3943;SDS011;1986;52.546;13.428;2023-06-04T12:51:24;31.00;;;28.60;;
3943;SDS011;1986;52.546;13.428;2023-06-04T12:53:51;31.10;;;28.83;;
3943;SDS011;1986;52.546;13.428;2023-06-04T12:56:18;30.37;;;28.07;;
3943;SDS011;1986;52.546;13.428;2023-06-04T12:58:45;31.20;;;29.00;;
3943;SDS011;1986;52.546;13.428;2023-06-04T13:01:12;31.80;;;29.60;;
3943;SDS011;1986;52.546;13.428;2023-06-04T13:03:39;30.53;;;28.33;;
3943;SDS011;1986;52.546;13.428;2023-06-04T13:06:08;30.83;;;28.53;;
3943;SDS011;1986;52.546;13.428;2023-06-04T13:08:37;31.00;;;28.60;;
3943;SDS011;1986;52.546;13.428;2023-06-04T13:11:05;31.17;;;28.97;;
3943;SDS011;1986;52.546;13.428;2023-06-04T13:13:33;30.00;;;27.70;;
3943;SDS011;1986;52.546;13.428;2023-06-04T13:16:00;31.80;;;29.40;;
3943;SDS011;1986;52.546;13.428;2023-06-04T13:18:28;31.63;;;29.33;;
3943;SDS011;1986;52.546;13.428;2023-06-04T13:21:10;31.83;;;29.53;;
3943;SDS011;1986;52.546;13.428;2023-06-04T13:23:44;32.20;;;29.90;;
3943;SDS011;1986;52.546;13.428;2023-06-04T13:26:11;31.73;;;29.43;;
3943;SDS011;1986;52.546;13.428;2023-06-04T13:28:38;30.70;;;28.50;;
3943;SDS011;1986;52.546;13.428;2023-06-04T13:31:05;30.73;;;28.43;;
3943;SDS011;1986;52.546;13.428;2023-06-04T13:33:32;30.73;;;28.53;;
3943;SDS011;1986;52.546;13.428;2023-06-04T13:36:00;32.17;;;29.67;;
3943;SDS011;1986;52.546;13.428;2023-06-04T13:38:30;30.40;;;28.20;;
3943;SDS011;1986;52.546;13.428;2023-06-04T13:40:57;31.20;;;29.00;;
3943;SDS011;1986;52.546;13.428;2023-06-04T13:43:24;31.00;;;28.80;;
3943;SDS011;1986;52.546;13.428;2023-06-04T13:45:51;32.60;;;30.30;;
3943;SDS011;1986;52.546;13.428;2023-06-04T13:48:18;32.00;;;29.70;;
3943;SDS011;1986;52.546;13.428;2023-06-04T13:50:45;31.07;;;28.80;;
3943;SDS011;1986;52.546;13.428;2023-06-04T13:53:12;33.20;;;30.87;;
3943;SDS011;1986;52.546;13.428;2023-06-04T13:55:42;34.17;;;31.77;;
3943;SDS011;1986;52.546;13.428;2023-06-04T13:58:09;33.17;;;30.87;;
3943;SDS011;1986;52.546;13.428;2023-06-04T14:00:36;32.93;;;30.63;;
3943;SDS011;1986;52.546;13.428;2023-06-04T14:03:03;32.43;;;30.13;;
3943;SDS011;1986;52.546;13.428;2023-06-04T14:05:31;32.57;;;29.90;;
3943;SDS011;1986;52.546;13.428;2023-06-04T14:07:58;32.77;;;30.47;;
3943;SDS011;1986;52.546;13.428;2023-06-04T14:10:28;32.67;;;30.37;;
3943;SDS011;1986;52.546;13.428;2023-06-04T14:12:56;32.20;;;29.90;;
3943;SDS011;1986;52.546;13.428;2023-06-04T14:15:23;32.07;;;29.87;;
3943;SDS011;1986;52.546;13.428;2023-06-04T14:17:50;32.53;;;30.23;;
3943;SDS011;1986;52.546;13.428;2023-06-04T14:20:17;31.63;;;29.43;;
3943;SDS011;1986;52.546;13.428;2023-06-04T14:22:44;31.70;;;29.50;;
3943;SDS011;1986;52.546;13.428;2023-06-04T14:25:11;31.60;;;29.40;;
3943;SDS011;1986;52.546;13.428;2023-06-04T14:27:38;31.70;;;29.50;;
3943;SDS011;1986;52.546;13.428;2023-06-04T14:30:11;32.33;;;30.03;;
3943;SDS011;1986;52.546;13.428;2023-06-04T14:32:40;31.10;;;28.90;;
3943;SDS011;1986;52.546;13.428;2023-06-04T14:35:07;32.37;;;30.17;;
3943;SDS011;1986;52.546;13.428;2023-06-04T14:37:34;32.70;;;30.40;;
3943;SDS011;1986;52.546;13.428;2023-06-04T14:40:01;33.60;;;31.30;;
3943;SDS011;1986;52.546;13.428;2023-06-04T14:42:29;35.00;;;32.63;;